Time;durP1;ratioP1;P1;durP2;ratioP2;P2;SDS_P1;SDS_P2;PMS_P1;PMS_P2;Temp;Humidity;BMP_temperature;BMP_pressure;BME280_temperature;BME280_humidity;BME280_pressure;Samples;Min_cycle;Max_cycle;Signal;HPM_P1;HPM_P2
2022/04/23 00:02:24;;;;;;;16.60;11.63;;;;;;;10.94;41.50;100512.78;5012825;28;20045;-74
2022/04/23 00:04:51;;;;;;;17.90;11.43;;;;;;;10.89;41.48;100520.50;5014214;28;20050;-74
2022/04/23 00:07:17;;;;;;;14.27;11.30;;;;;;;10.90;41.34;100519.50;5014062;28;20054;-74
2022/04/23 00:09:44;;;;;;;16.98;12.43;;;;;;;10.76;41.81;100513.97;5004379;28;20060;-74
2022/04/23 00:12:10;;;;;;;18.02;12.13;;;;;;;10.64;41.66;100516.13;5013573;28;20050;-74
2022/04/23 00:14:37;;;;;;;15.43;11.45;;;;;;;10.76;41.65;100513.97;5013772;28;20073;-74
2022/04/23 00:17:04;;;;;;;17.35;12.63;;;;;;;10.87;41.25;100517.16;5013326;28;20049;-74
2022/04/23 00:19:31;;;;;;;21.77;12.00;;;;;;;10.58;41.76;100519.47;5013638;28;20120;-74
2022/04/23 00:21:58;;;;;;;17.08;11.77;;;;;;;11.04;40.78;100511.78;5013755;28;20134;-74
2022/04/23 00:24:24;;;;;;;16.27;11.65;;;;;;;10.67;41.76;100513.09;5013383;28;20096;-74
2022/04/23 00:26:51;;;;;;;19.73;12.23;;;;;;;11.06;40.80;100515.97;5012980;28;20046;-74
2022/04/23 00:29:17;;;;;;;22.33;12.48;;;;;;;10.81;41.06;100512.44;5011391;28;20149;-74
2022/04/23 00:31:44;;;;;;;16.42;12.25;;;;;;;10.56;41.70;100508.06;5012528;28;20112;-74
2022/04/23 00:34:11;;;;;;;18.52;11.88;;;;;;;10.60;41.87;100507.56;5012743;28;20068;-74
2022/04/23 00:36:37;;;;;;;14.57;12.18;;;;;;;10.66;41.52;100511.44;5009337;28;20547;-74
2022/04/23 00:39:05;;;;;;;16.95;12.23;;;;;;;10.69;41.50;100513.78;5012224;28;20104;-74
2022/04/23 00:41:45;;;;;;;19.65;12.75;;;;;;;10.23;42.44;100510.63;5013918;28;20045;-74
2022/04/23 00:44:11;;;;;;;17.15;12.73;;;;;;;10.69;41.40;100508.44;5012908;28;20046;-74
2022/04/23 00:46:38;;;;;;;16.77;12.60;;;;;;;10.36;42.08;100504.81;5013569;28;20076;-74
2022/04/23 00:49:06;;;;;;;21.92;13.63;;;;;;;10.63;41.70;100506.41;5011000;28;20085;-74
2022/04/23 00:51:33;;;;;;;18.23;13.60;;;;;;;10.35;42.29;100505.81;5012206;28;20115;-74
2022/04/23 00:54:09;;;;;;;17.17;12.52;;;;;;;10.38;42.26;100511.69;5013302;28;20050;-74
2022/04/23 00:56:37;;;;;;;18.08;13.48;;;;;;;10.28;42.31;100517.19;5012975;28;20042;-74
2022/04/23 00:59:08;;;;;;;18.77;13.43;;;;;;;10.31;42.27;100504.47;5013011;28;20099;-74
2022/04/23 01:01:35;;;;;;;18.00;13.00;;;;;;;9.96;42.91;100506.38;5012604;28;20430;-74
2022/04/23 01:04:02;;;;;;;21.40;13.73;;;;;;;10.22;42.38;100511.66;5014178;28;20038;-74
2022/04/23 01:07:24;;;;;;;19.80;13.93;;;;;;;10.46;41.77;100510.88;5012632;28;20041;-73
2022/04/23 01:10:15;;;;;;;24.00;14.32;;;;;;;10.22;42.16;100512.47;5012084;28;20049;-73
2022/04/23 01:12:45;;;;;;;18.42;12.93;;;;;;;10.44;41.85;100507.50;5013155;28;20124;-74
2022/04/23 01:15:13;;;;;;;21.50;14.30;;;;;;;10.49;41.72;100507.84;5012336;28;20490;-74
2022/04/23 01:17:41;;;;;;;18.13;13.60;;;;;;;9.78;43.12;100509.94;5013120;28;20070;-74
2022/04/23 01:20:10;;;;;;;17.90;13.48;;;;;;;10.01;42.59;100514.75;5012587;28;20073;-75
2022/04/23 01:22:37;;;;;;;24.98;14.48;;;;;;;10.09;42.21;100516.63;5013163;28;20046;-74
2022/04/23 01:25:06;;;;;;;18.73;13.65;;;;;;;9.72;43.18;100515.13;5012385;28;20118;-75
2022/04/23 01:27:34;;;;;;;19.92;13.70;;;;;;;9.91;42.70;100517.56;5012381;28;20532;-75
2022/04/23 01:30:01;;;;;;;19.55;14.30;;;;;;;9.87;42.73;100508.16;5012522;28;20057;-73
2022/04/23 01:32:28;;;;;;;19.00;13.98;;;;;;;10.00;42.41;100507.72;5011507;28;20133;-74
2022/04/23 01:34:54;;;;;;;21.88;14.98;;;;;;;10.06;42.32;100506.22;5012209;28;20118;-75
2022/04/23 01:37:20;;;;;;;22.00;14.52;;;;;;;9.95;42.35;100504.69;5012220;28;20136;-75
2022/04/23 01:39:47;;;;;;;19.65;14.57;;;;;;;10.05;42.21;100508.06;5012761;28;20049;-74
2022/04/23 01:42:17;;;;;;;24.42;14.90;;;;;;;9.78;42.73;100506.44;5011492;28;20458;-74
2022/04/23 01:44:51;;;;;;;21.67;14.43;;;;;;;9.74;42.67;100507.75;5011933;28;20128;-75
2022/04/23 01:47:18;;;;;;;22.73;14.63;;;;;;;9.78;42.49;100504.59;5010879;28;20137;-74
2022/04/23 01:49:45;;;;;;;20.00;14.30;;;;;;;9.53;43.16;100503.63;5011273;28;20056;-74
2022/04/23 01:52:12;;;;;;;23.38;14.57;;;;;;;9.99;42.17;100512.25;5011704;28;20055;-74
2022/04/23 01:54:39;;;;;;;19.65;14.70;;;;;;;9.86;42.29;100506.50;5011421;28;20057;-74
2022/04/23 01:57:06;;;;;;;19.73;14.45;;;;;;;9.82;42.28;100507.81;5011784;28;20050;-74
2022/04/23 01:59:32;;;;;;;25.08;14.52;;;;;;;9.77;42.27;100510.97;5012905;28;20050;-74
2022/04/23 02:01:59;;;;;;;18.58;13.77;;;;;;;9.79;42.33;100510.81;5008807;28;20646;-74
2022/04/23 02:04:26;;;;;;;19.30;14.27;;;;;;;9.81;42.12;100511.47;5011202;28;20069;-74
2022/04/23 02:06:53;;;;;;;22.05;15.00;;;;;;;9.86;42.19;100519.06;5010548;28;20120;-74
2022/04/23 02:09:20;;;;;;;21.10;13.60;;;;;;;9.68;42.28;100513.75;5009537;28;20457;-74
2022/04/23 02:11:46;;;;;;;18.88;14.27;;;;;;;9.74;42.17;100519.31;5009530;28;20522;-74
2022/04/23 02:14:13;;;;;;;22.27;13.93;;;;;;;9.61;42.35;100507.34;5010544;28;20137;-75
2022/04/23 02:16:40;;;;;;;21.70;13.77;;;;;;;9.86;41.69;100516.38;5012162;28;20092;-74
2022/04/23 02:19:07;;;;;;;19.73;13.93;;;;;;;9.86;41.52;100517.22;5012214;28;20453;-74
2022/04/23 02:21:33;;;;;;;19.40;14.25;;;;;;;9.69;42.11;100515.47;5012359;28;20113;-74
2022/04/23 02:24:01;;;;;;;24.98;14.77;;;;;;;9.52;41.99;100520.72;5012652;28;20066;-74
2022/04/23 02:26:28;;;;;;;23.83;13.73;;;;;;;9.55;41.90;100509.69;5010639;28;20057;-74
2022/04/23 02:28:54;;;;;;;23.92;14.98;;;;;;;9.80;41.63;100512.50;5008931;28;20046;-75
2022/04/23 02:31:21;;;;;;;18.95;14.20;;;;;;;9.79;41.56;100514.34;5011549;28;20157;-74
2022/04/23 02:33:47;;;;;;;18.67;13.48;;;;;;;9.29;42.15;100514.19;5011931;28;20056;-74
2022/04/23 02:36:15;;;;;;;20.15;13.90;;;;;;;9.69;41.64;100510.09;5010108;28;20137;-74
2022/04/23 02:38:42;;;;;;;19.08;13.98;;;;;;;9.54;41.71;100510.69;5011678;28;20067;-74
2022/04/23 02:41:09;;;;;;;18.30;13.55;;;;;;;9.60;41.53;100517.22;5012527;28;20121;-74
2022/04/23 02:43:38;;;;;;;18.73;13.45;;;;;;;9.46;41.65;100515.97;5010438;28;20081;-74
2022/04/23 02:46:05;;;;;;;21.35;13.07;;;;;;;9.69;41.27;100513.63;5012955;28;20053;-74
2022/04/23 02:48:32;;;;;;;18.90;13.98;;;;;;;9.47;41.41;100512.31;5013085;28;20471;-73
2022/04/23 02:50:58;;;;;;;19.20;14.13;;;;;;;9.29;42.02;100519.56;5011300;28;20069;-73
2022/04/23 02:53:26;;;;;;;19.50;13.60;;;;;;;9.30;41.85;100521.22;5011093;28;20141;-73
2022/04/23 02:55:56;;;;;;;17.88;13.32;;;;;;;9.35;41.68;100521.59;5006676;28;20077;-73
2022/04/23 02:58:26;;;;;;;20.48;13.63;;;;;;;9.48;41.65;100534.59;5010582;28;20045;-73
2022/04/23 03:00:53;;;;;;;27.60;15.18;;;;;;;9.40;41.60;100527.31;5010418;28;20405;-73
2022/04/23 03:03:21;;;;;;;19.27;13.80;;;;;;;9.26;41.82;100522.53;5013009;28;20060;-73
2022/04/23 03:05:48;;;;;;;17.77;13.20;;;;;;;9.19;42.01;100519.59;5015383;28;20474;-73
2022/04/23 03:08:15;;;;;;;18.08;13.15;;;;;;;9.39;41.29;100522.13;5013373;28;20129;-73
2022/04/23 03:10:42;;;;;;;19.27;13.05;;;;;;;9.28;41.70;100524.06;5013461;28;20081;-74
2022/04/23 03:13:08;;;;;;;18.55;13.43;;;;;;;9.33;41.58;100520.91;5013681;28;20046;-73
2022/04/23 03:15:36;;;;;;;20.77;14.02;;;;;;;9.35;41.79;100524.28;5013793;28;20085;-73
2022/04/23 03:18:10;;;;;;;18.20;12.93;;;;;;;9.06;41.92;100527.22;5014162;28;20069;-73
2022/04/23 03:20:37;;;;;;;19.42;13.57;;;;;;;8.91;42.16;100518.06;5014856;28;20070;-73
2022/04/23 03:23:05;;;;;;;18.23;13.15;;;;;;;9.28;41.53;100518.72;5015599;28;20121;-73
2022/04/23 03:25:32;;;;;;;19.75;13.57;;;;;;;9.59;41.15;100525.44;5015493;28;20034;-73
2022/04/23 03:28:00;;;;;;;20.77;13.68;;;;;;;9.41;40.98;100523.66;5021835;28;20064;-73
2022/04/23 03:30:27;;;;;;;21.60;13.38;;;;;;;9.20;41.52;100515.97;5014306;28;20053;-73
2022/04/23 03:32:54;;;;;;;23.05;14.27;;;;;;;9.04;41.68;100514.00;5015125;28;20124;-73
2022/04/23 03:35:21;;;;;;;18.92;13.38;;;;;;;9.35;41.16;100518.94;5015038;28;20054;-73
2022/04/23 03:37:48;;;;;;;20.83;13.85;;;;;;;9.16;41.61;100513.72;5013272;28;20121;-73
2022/04/23 03:40:22;;;;;;;19.50;14.32;;;;;;;9.25;41.65;100518.19;5013836;28;20073;-73
2022/04/23 03:42:48;;;;;;;20.65;13.18;;;;;;;9.40;41.02;100524.63;5013337;28;20118;-75
2022/04/23 03:45:17;;;;;;;19.20;13.50;;;;;;;9.02;41.88;100529.38;5014913;28;20482;-73
2022/04/23 03:47:44;;;;;;;19.10;13.55;;;;;;;9.12;41.74;100525.75;5014784;28;20058;-73
2022/04/23 03:50:11;;;;;;;20.00;13.57;;;;;;;9.22;41.48;100530.00;5013581;28;20134;-73
2022/04/23 03:52:38;;;;;;;17.38;12.77;;;;;;;9.13;41.36;100522.94;5013735;28;20046;-73
2022/04/23 03:55:05;;;;;;;18.67;13.38;;;;;;;8.85;42.39;100539.09;5014813;28;20063;-73
2022/04/23 03:57:32;;;;;;;20.10;14.07;;;;;;;9.32;41.36;100527.28;5014163;28;20085;-73
2022/04/23 04:00:03;;;;;;;20.40;13.98;;;;;;;9.18;41.36;100528.66;5014293;28;20125;-74
2022/04/23 04:02:30;;;;;;;18.95;12.77;;;;;;;9.35;41.18;100528.81;5014272;28;20046;-74
2022/04/23 04:04:57;;;;;;;21.98;13.68;;;;;;;9.03;41.67;100525.69;5013665;28;20050;-73
2022/04/23 04:07:23;;;;;;;17.38;12.30;;;;;;;9.32;41.29;100535.31;5013932;28;20046;-73
2022/04/23 04:09:49;;;;;;;19.05;13.45;;;;;;;9.66;40.23;100532.69;5012317;28;20122;-73
2022/04/23 04:12:16;;;;;;;18.92;12.90;;;;;;;9.59;40.77;100539.66;5014233;28;20053;-75
2022/04/23 04:14:43;;;;;;;20.02;12.93;;;;;;;9.28;41.36;100534.78;5013577;28;20112;-73
2022/04/23 04:17:10;;;;;;;17.77;12.80;;;;;;;9.13;41.48;100538.13;5014181;28;20045;-73
2022/04/23 04:19:38;;;;;;;18.45;13.27;;;;;;;9.32;41.13;100540.66;5014526;28;20469;-73
2022/04/23 04:22:06;;;;;;;20.23;13.48;;;;;;;9.14;41.76;100540.66;5014087;28;20104;-74
2022/04/23 04:24:33;;;;;;;18.55;13.63;;;;;;;8.98;41.76;100549.38;5013142;28;20138;-74
2022/04/23 04:27:00;;;;;;;19.17;13.50;;;;;;;9.20;41.34;100534.69;5014212;28;20042;-73
2022/04/23 04:29:28;;;;;;;23.40;15.43;;;;;;;8.96;42.49;100542.53;5013041;28;20537;-74
2022/04/23 04:31:54;;;;;;;18.55;13.35;;;;;;;9.54;41.26;100540.16;5013530;28;20387;-73
2022/04/23 04:34:30;;;;;;;19.30;14.65;;;;;;;9.41;41.22;100542.41;5013788;28;20133;-73
2022/04/23 04:37:06;;;;;;;20.35;13.68;;;;;;;9.21;41.83;100546.25;5013143;28;20577;-74
2022/04/23 04:39:35;;;;;;;24.58;14.35;;;;;;;9.41;41.63;100541.56;5012725;28;20133;-75
2022/04/23 04:42:03;;;;;;;20.08;14.32;;;;;;;9.44;41.50;100546.59;5012807;28;20443;-74
2022/04/23 04:44:30;;;;;;;22.40;14.68;;;;;;;8.82;42.83;100549.25;5013310;28;20145;-74
2022/04/23 04:46:56;;;;;;;21.90;14.82;;;;;;;8.99;42.71;100547.53;5012713;28;20109;-74
2022/04/23 04:49:23;;;;;;;23.08;14.77;;;;;;;8.48;43.75;100547.25;5010737;28;20133;-74
2022/04/23 04:51:50;;;;;;;21.50;15.05;;;;;;;9.29;42.41;100540.97;5013655;28;20125;-74
2022/04/23 04:54:21;;;;;;;22.27;15.82;;;;;;;9.06;42.83;100546.78;5012402;28;20141;-74
2022/04/23 04:56:49;;;;;;;21.17;14.95;;;;;;;9.11;42.24;100550.84;5013330;28;20091;-74
2022/04/23 04:59:15;;;;;;;24.05;15.95;;;;;;;8.81;42.92;100552.91;5013281;28;20542;-74
2022/04/23 05:01:42;;;;;;;22.70;14.77;;;;;;;9.41;41.84;100553.13;5001287;28;20137;-74
2022/04/23 05:04:09;;;;;;;24.23;14.88;;;;;;;9.13;42.23;100554.19;5013135;28;20052;-74
2022/04/23 05:06:36;;;;;;;21.10;13.45;;;;;;;9.40;41.77;100558.59;5012998;28;20128;-73
2022/04/23 05:09:02;;;;;;;25.52;14.80;;;;;;;9.90;40.82;100557.94;5011288;28;20045;-74
2022/04/23 05:11:29;;;;;;;19.67;14.13;;;;;;;9.95;40.31;100553.75;5011870;28;20057;-74
2022/04/23 05:13:55;;;;;;;21.02;14.82;;;;;;;9.78;41.02;100557.34;5011885;28;20061;-74
2022/04/23 05:16:22;;;;;;;23.08;14.55;;;;;;;9.61;41.14;100561.75;5012059;28;20530;-73
2022/04/23 05:18:48;;;;;;;21.10;14.27;;;;;;;9.83;40.80;100565.75;5012959;28;20137;-73
2022/04/23 05:21:15;;;;;;;19.42;15.02;;;;;;;10.04;40.42;100563.50;5012738;28;20550;-74
2022/04/23 05:23:41;;;;;;;20.60;14.10;;;;;;;10.16;40.18;100565.91;5013479;28;20077;-74
2022/04/23 05:26:09;;;;;;;23.13;14.23;;;;;;;10.22;40.17;100563.41;5013223;28;20453;-74
2022/04/23 05:28:35;;;;;;;21.85;14.70;;;;;;;10.68;39.18;100566.59;5013230;28;20576;-75
2022/04/23 05:31:05;;;;;;;17.90;14.15;;;;;;;10.39;39.70;100572.38;5012663;28;20042;-75
2022/04/23 05:33:31;;;;;;;18.88;14.38;;;;;;;10.32;39.68;100567.81;5009696;28;20434;-74
2022/04/23 05:35:58;;;;;;;19.60;13.18;;;;;;;10.61;39.34;100564.75;5012921;28;20455;-73
2022/04/23 05:38:25;;;;;;;20.63;14.18;;;;;;;10.55;39.17;100568.06;5011226;28;20133;-73
2022/04/23 05:40:51;;;;;;;19.58;13.40;;;;;;;10.79;38.73;100560.09;5012592;28;20132;-74
2022/04/23 05:43:18;;;;;;;22.05;13.57;;;;;;;10.82;38.96;100566.94;5013456;28;20508;-74
2022/04/23 05:45:44;;;;;;;19.67;14.07;;;;;;;10.09;40.07;100562.19;5010313;28;20133;-74
2022/04/23 05:48:11;;;;;;;19.88;14.55;;;;;;;10.44;39.42;100575.41;5011671;28;20057;-74
2022/04/23 05:50:38;;;;;;;22.65;13.45;;;;;;;11.22;38.58;100571.53;5013102;28;20125;-74
2022/04/23 05:53:04;;;;;;;18.02;12.73;;;;;;;11.35;38.15;100568.34;5007484;28;20394;-74
2022/04/23 05:55:31;;;;;;;20.70;13.68;;;;;;;11.79;37.12;100568.78;5011707;28;20125;-74
2022/04/23 05:57:57;;;;;;;19.42;13.20;;;;;;;11.35;37.91;100568.34;5012611;28;20152;-74
2022/04/23 06:00:23;;;;;;;18.35;12.65;;;;;;;11.49;37.53;100564.97;5012398;28;20427;-74
2022/04/23 06:02:50;;;;;;;18.30;12.52;;;;;;;11.89;36.78;100561.34;5011678;28;20058;-74
2022/04/23 06:05:17;;;;;;;19.52;13.15;;;;;;;12.09;36.50;100561.78;5012506;28;20383;-74
2022/04/23 06:07:43;;;;;;;20.33;13.30;;;;;;;11.99;36.50;100560.31;5011900;28;20068;-74
2022/04/23 06:10:10;;;;;;;16.58;11.55;;;;;;;12.29;35.74;100566.78;5013011;28;20120;-74
2022/04/23 06:12:37;;;;;;;17.88;11.75;;;;;;;12.37;35.73;100569.41;5012194;28;20069;-74
2022/04/23 06:15:04;;;;;;;23.48;12.10;;;;;;;12.35;35.78;100566.91;5008906;28;20140;-74
2022/04/23 06:17:31;;;;;;;16.75;12.35;;;;;;;12.36;35.77;100565.88;5010987;28;20534;-72
2022/04/23 06:19:59;;;;;;;14.40;10.95;;;;;;;12.28;35.81;100560.56;5010460;28;20077;-72
2022/04/23 06:22:26;;;;;;;17.67;11.95;;;;;;;12.79;35.16;100563.63;5009646;28;20486;-71
2022/04/23 06:24:52;;;;;;;19.70;12.38;;;;;;;12.40;35.52;100564.50;5010857;28;20136;-71
2022/04/23 06:27:19;;;;;;;17.13;11.35;;;;;;;12.84;34.59;100561.25;5009987;28;20144;-71
2022/04/23 06:29:45;;;;;;;16.77;11.88;;;;;;;12.68;34.89;100571.25;5016046;28;20450;-71
2022/04/23 06:32:12;;;;;;;17.80;11.10;;;;;;;12.92;34.04;100556.84;5010954;28;20447;-71
2022/04/23 06:34:39;;;;;;;15.15;10.13;;;;;;;13.22;33.57;100555.91;5011229;28;20088;-71
2022/04/23 06:37:07;;;;;;;15.20;9.80;;;;;;;12.52;34.39;100562.28;5011538;28;20530;-71
2022/04/23 06:39:34;;;;;;;15.13;10.20;;;;;;;12.90;33.79;100567.75;5010666;28;20061;-71
2022/04/23 06:42:01;;;;;;;12.07;9.43;;;;;;;13.71;32.96;100568.09;5009900;28;20060;-72
2022/04/23 06:44:27;;;;;;;14.05;9.63;;;;;;;13.31;33.15;100573.66;5010891;28;20054;-72
2022/04/23 06:46:54;;;;;;;12.07;8.52;;;;;;;13.93;32.23;100571.75;5002845;28;20087;-72
2022/04/23 06:49:20;;;;;;;13.02;8.77;;;;;;;13.19;33.14;100567.06;5019718;28;20073;-71
2022/04/23 06:51:47;;;;;;;14.20;9.80;;;;;;;13.23;32.83;100572.91;5010215;28;20114;-71
2022/04/23 06:54:13;;;;;;;16.00;9.15;;;;;;;13.39;32.62;100570.09;5010251;28;20072;-71
2022/04/23 06:56:40;;;;;;;11.00;8.35;;;;;;;13.50;32.60;100566.13;5011186;28;20052;-71
2022/04/23 06:59:06;;;;;;;16.52;9.52;;;;;;;13.26;32.73;100572.56;5009893;28;20125;-71
2022/04/23 07:01:32;;;;;;;12.75;8.57;;;;;;;14.05;31.44;100570.28;5011111;28;20042;-71
2022/04/23 07:03:59;;;;;;;12.80;7.97;;;;;;;14.23;30.99;100572.56;5010541;28;20517;-71
2022/04/23 07:06:25;;;;;;;14.80;8.68;;;;;;;14.76;30.78;100574.06;5010359;28;20050;-71
2022/04/23 07:08:52;;;;;;;11.60;7.60;;;;;;;15.31;29.84;100571.69;5011515;28;20056;-71
2022/04/23 07:11:18;;;;;;;13.57;8.10;;;;;;;14.97;29.68;100570.53;5010447;28;20448;-71
2022/04/23 07:13:45;;;;;;;10.88;7.35;;;;;;;14.48;30.33;100571.22;5008888;28;20081;-72
2022/04/23 07:16:13;;;;;;;10.55;7.20;;;;;;;14.18;30.35;100570.41;5010342;28;20081;-72
2022/04/23 07:18:40;;;;;;;11.43;8.23;;;;;;;14.56;30.01;100570.25;5011395;28;20054;-72
2022/04/23 07:21:07;;;;;;;8.65;6.45;;;;;;;14.97;29.18;100570.53;5010368;28;20069;-72
2022/04/23 07:26:19;;;;;;;8.52;6.60;;;;;;;15.58;28.14;100570.03;5009984;28;20140;-71
2022/04/23 07:28:46;;;;;;;9.85;6.45;;;;;;;15.44;28.28;100573.66;5010810;28;20070;-71
2022/04/23 07:31:12;;;;;;;10.95;7.70;;;;;;;16.00;27.42;100557.41;5010589;28;20433;-72
2022/04/23 07:39:09;;;;;;;10.15;7.13;;;;;;;16.64;26.56;100561.66;5009600;28;20045;-74
2022/04/23 07:41:36;;;;;;;10.80;6.78;;;;;;;16.35;26.96;100557.38;5013038;28;20064;-74
2022/04/23 07:44:02;;;;;;;8.98;6.90;;;;;;;16.11;27.18;100556.84;5012633;28;20066;-74
2022/04/23 07:46:30;;;;;;;7.90;6.35;;;;;;;16.27;27.10;100560.25;5012859;28;20482;-73
2022/04/23 07:48:58;;;;;;;10.75;7.07;;;;;;;16.27;26.77;100549.44;5011820;28;20051;-73
2022/04/23 07:51:27;;;;;;;8.40;6.68;;;;;;;16.54;26.74;100555.78;5014798;28;20141;-73
2022/04/23 07:53:59;;;;;;;10.75;7.35;;;;;;;16.69;26.79;100558.34;5005555;28;20056;-74
2022/04/23 07:56:26;;;;;;;10.15;7.10;;;;;;;15.77;27.80;100559.56;5029008;28;20088;-73
2022/04/23 07:58:52;;;;;;;10.02;6.57;;;;;;;16.22;27.63;100557.31;5014572;28;20049;-73
2022/04/23 08:01:18;;;;;;;8.38;6.82;;;;;;;16.93;26.53;100552.34;5014275;28;20046;-74
2022/04/23 08:03:45;;;;;;;8.05;6.78;;;;;;;16.39;27.18;100554.03;5014524;28;20049;-73
2022/04/23 08:06:13;;;;;;;9.60;7.00;;;;;;;16.64;26.92;100551.69;5014153;28;20379;-73
2022/04/23 08:08:40;;;;;;;11.02;7.22;;;;;;;16.63;26.86;100547.28;5012771;28;20045;-74
2022/04/23 08:11:07;;;;;;;10.05;7.43;;;;;;;15.88;28.29;100550.88;5014652;28;20486;-74
2022/04/23 08:13:33;;;;;;;10.20;7.65;;;;;;;16.27;27.65;100555.69;5013300;28;20141;-74
2022/04/23 08:16:00;;;;;;;11.00;8.40;;;;;;;16.52;27.38;100547.06;5013769;28;20108;-74
2022/04/23 08:18:29;;;;;;;9.55;7.60;;;;;;;16.87;27.21;100542.34;5013588;28;20076;-74
2022/04/23 08:20:55;;;;;;;10.43;7.55;;;;;;;18.05;25.54;100543.28;5013524;28;20128;-75
2022/04/23 08:23:22;;;;;;;10.23;7.82;;;;;;;16.98;26.27;100541.72;5014213;28;20058;-74
2022/04/23 08:25:48;;;;;;;9.63;7.43;;;;;;;17.21;26.21;100535.91;5014929;28;20402;-74
2022/04/23 08:31:00;;;;;;;8.68;7.57;;;;;;;16.77;26.95;100539.19;5012693;28;20461;-74
2022/04/23 08:33:57;;;;;;;9.32;7.28;;;;;;;16.66;27.27;100538.75;5013971;28;20134;-75
2022/04/23 08:36:16;;;;;;;9.63;7.55;;;;;;;16.97;26.78;100537.34;5012129;28;20129;-74
2022/04/23 08:38:42;;;;;;;8.75;7.57;;;;;;;16.45;27.46;100530.75;5012719;28;20137;-74
2022/04/23 08:41:11;;;;;;;12.18;7.93;;;;;;;17.20;26.55;100528.81;5013433;28;20046;-74
2022/04/23 08:43:37;;;;;;;11.85;7.40;;;;;;;18.42;24.91;100521.88;5013304;28;20074;-75
2022/04/23 08:46:04;;;;;;;14.43;6.60;;;;;;;19.17;24.90;100521.19;5012400;28;20070;-66
2022/04/23 08:48:36;;;;;;;12.65;8.00;;;;;;;19.41;24.67;100525.78;5012567;28;20046;-65
2022/04/23 08:51:05;;;;;;;10.90;6.90;;;;;;;19.68;23.69;100525.56;5011837;28;20050;-64
2022/04/23 08:53:34;;;;;;;10.27;6.47;;;;;;;18.81;24.28;100514.53;5012388;28;20129;-65
2022/04/23 08:56:01;;;;;;;12.43;6.78;;;;;;;17.72;25.12;100508.13;5013072;28;20137;-64
2022/04/23 08:58:28;;;;;;;9.10;6.75;;;;;;;17.29;25.95;100513.16;5013016;28;20049;-65
2022/04/23 09:00:54;;;;;;;11.95;7.43;;;;;;;17.57;25.30;100508.34;5011337;28;20402;-65
2022/04/23 09:03:21;;;;;;;11.30;5.97;;;;;;;17.68;25.28;100503.31;5012926;28;20088;-65
2022/04/23 09:05:52;;;;;;;10.23;6.45;;;;;;;17.87;25.21;100499.72;5012750;28;20478;-65
2022/04/23 09:08:18;;;;;;;7.87;6.00;;;;;;;18.30;24.53;100497.25;5012309;28;20121;-65
2022/04/23 09:10:47;;;;;;;11.60;6.50;;;;;;;17.83;24.49;100498.50;5011871;28;20823;-65
2022/04/23 09:13:25;;;;;;;9.30;6.32;;;;;;;17.46;25.23;100505.47;5012304;28;20442;-65
2022/04/23 09:24:45;;;;;;;;;;;;;;;20.36;22.22;100487.22;5011981;28;20045;-66
2022/04/23 09:27:11;;;;;;;8.23;5.82;;;;;;;20.53;21.66;100495.63;5012331;28;20377;-65
2022/04/23 09:29:38;;;;;;;10.13;5.68;;;;;;;18.99;22.48;100483.88;5012611;28;20038;-65
2022/04/23 09:32:14;;;;;;;6.00;5.10;;;;;;;18.62;23.14;100474.72;5012052;28;20061;-65
2022/04/23 09:34:41;;;;;;;12.02;5.30;;;;;;;18.12;23.60;100482.72;5012008;28;20438;-65
2022/04/23 09:37:08;;;;;;;5.07;4.40;;;;;;;18.83;22.75;100479.81;5012187;28;20069;-64
2022/04/23 09:39:38;;;;;;;6.90;5.25;;;;;;;19.22;22.60;100484.13;5012719;28;20080;-66
2022/04/23 09:42:15;;;;;;;6.40;5.15;;;;;;;18.64;22.97;100475.34;5011680;28;20050;-65
2022/04/23 09:44:43;;;;;;;5.43;4.60;;;;;;;18.39;23.35;100478.03;5011491;28;20484;-65
2022/04/23 09:47:10;;;;;;;12.32;5.30;;;;;;;18.55;23.22;100466.66;5011120;28;20120;-65
2022/04/23 09:49:38;;;;;;;5.70;4.65;;;;;;;18.37;23.13;100469.25;5011709;28;20564;-65
2022/04/23 09:52:09;;;;;;;6.20;4.72;;;;;;;20.22;21.84;100461.25;5010977;28;20038;-65
2022/04/23 09:54:38;;;;;;;6.07;4.93;;;;;;;19.97;21.68;100461.38;5011884;28;20401;-64
2022/04/23 09:57:05;;;;;;;8.13;4.82;;;;;;;18.42;23.21;100462.13;5012054;28;20056;-65
2022/04/23 09:59:31;;;;;;;8.25;5.25;;;;;;;18.97;23.10;100458.84;5012199;28;20053;-65
2022/04/23 10:01:58;;;;;;;9.68;5.05;;;;;;;18.72;23.26;100461.47;5011797;28;20068;-65
2022/04/23 10:04:27;;;;;;;5.60;4.90;;;;;;;18.83;22.84;100463.50;5012656;28;20042;-64
2022/04/23 10:06:54;;;;;;;7.05;5.30;;;;;;;18.70;22.67;100461.72;5011440;28;20053;-65
2022/04/23 10:09:26;;;;;;;7.18;4.95;;;;;;;18.99;22.34;100457.53;5012196;28;20538;-63
2022/04/23 10:12:01;;;;;;;7.35;5.40;;;;;;;19.57;21.97;100441.91;5009157;28;20046;-65
2022/04/23 10:14:33;;;;;;;8.73;5.93;;;;;;;18.57;23.12;100455.53;5011269;28;20109;-65
2022/04/23 10:17:09;;;;;;;10.77;5.80;;;;;;;18.80;22.67;100453.09;5011411;28;20042;-65
2022/04/23 10:19:36;;;;;;;10.30;6.07;;;;;;;18.03;23.58;100447.69;5011089;28;20082;-66
2022/04/23 10:22:20;;;;;;;8.00;6.57;;;;;;;19.32;22.63;100439.25;5011589;28;20391;-65
2022/04/23 10:24:59;;;;;;;6.57;5.63;;;;;;;20.00;21.60;100446.44;5010286;28;20076;-65
2022/04/23 10:27:26;;;;;;;6.43;5.72;;;;;;;21.19;21.41;100436.50;5011257;28;20073;-64
2022/04/23 10:29:56;;;;;;;7.18;5.03;;;;;;;20.27;20.78;100436.03;5011738;28;20069;-65
2022/04/23 10:32:24;;;;;;;5.28;4.57;;;;;;;21.30;20.24;100427.47;5010841;28;20050;-64
2022/04/23 10:34:50;;;;;;;6.00;4.38;;;;;;;20.36;20.87;100434.66;5011282;28;20111;-65
2022/04/23 10:37:29;;;;;;;11.02;4.78;;;;;;;19.99;22.05;100440.16;5011839;28;20077;-64
2022/04/23 10:39:56;;;;;;;7.68;4.82;;;;;;;17.91;23.45;100433.13;5011502;28;20096;-65
2022/04/23 10:42:24;;;;;;;8.55;4.65;;;;;;;18.74;23.00;100440.38;5011577;28;20100;-66
2022/04/23 10:44:54;;;;;;;6.93;4.15;;;;;;;19.38;21.94;100425.59;5011639;28;20506;-65
2022/04/23 10:47:32;;;;;;;8.40;4.68;;;;;;;18.55;22.52;100420.47;5010737;28;20121;-66
2022/04/23 10:52:40;;;;;;;6.32;4.22;;;;;;;17.64;23.59;100405.25;5010743;28;20042;-66
2022/04/23 10:55:14;;;;;;;5.30;4.78;;;;;;;17.32;24.09;100413.25;5010968;28;20042;-65
2022/04/23 10:57:50;;;;;;;7.95;5.13;;;;;;;17.95;23.14;100423.50;5010592;28;20077;-65
2022/04/23 11:00:19;;;;;;;8.20;4.50;;;;;;;17.77;24.05;100409.81;5011076;28;20176;-65
2022/04/23 11:02:55;;;;;;;6.80;4.45;;;;;;;17.50;24.10;100414.50;5009082;28;20069;-65
2022/04/23 11:13:56;;;;;;;5.97;3.90;;;;;;;17.07;24.08;100404.97;5010454;28;20537;-65
2022/04/23 11:16:25;;;;;;;6.75;4.38;;;;;;;17.89;23.02;100399.09;5010235;28;20080;-65
2022/04/23 11:18:52;;;;;;;5.50;4.25;;;;;;;19.18;22.81;100389.63;5010594;28;20402;-65
2022/04/23 11:21:24;;;;;;;7.50;4.45;;;;;;;19.12;22.28;100395.94;5010841;28;20116;-65
2022/04/23 11:23:52;;;;;;;7.03;4.20;;;;;;;18.71;22.01;100400.06;5012250;28;20046;-65
2022/04/23 11:26:22;;;;;;;6.63;3.92;;;;;;;18.14;22.47;100393.75;5013445;28;20088;-65
2022/04/23 11:28:58;;;;;;;5.47;4.10;;;;;;;18.27;22.43;100393.69;5014108;28;20060;-65
2022/04/23 11:31:25;;;;;;;5.78;4.43;;;;;;;18.36;22.29;100396.97;5014633;28;20076;-65
2022/04/23 11:33:54;;;;;;;8.18;3.80;;;;;;;19.52;21.15;100400.94;5009395;28;20517;-65
2022/04/23 11:36:31;;;;;;;8.60;3.95;;;;;;;20.46;20.08;100390.53;5013928;28;20508;-65
2022/04/23 11:39:00;;;;;;;6.13;4.07;;;;;;;20.19;20.39;100369.91;5015081;28;20069;-65
2022/04/23 11:41:35;;;;;;;4.40;3.55;;;;;;;21.72;18.80;100386.31;5014556;28;20466;-65
2022/04/23 11:44:12;;;;;;;6.55;3.55;;;;;;;20.96;19.47;100368.28;5014407;28;20046;-65
2022/04/23 11:46:51;;;;;;;5.70;3.90;;;;;;;19.86;20.31;100366.84;5015510;28;20137;-65
2022/04/23 11:49:29;;;;;;;7.40;3.63;;;;;;;20.35;20.27;100368.44;5015218;28;20050;-64
2022/04/23 11:52:14;;;;;;;5.47;3.97;;;;;;;19.83;20.56;100359.13;5015082;28;20125;-65
2022/04/23 11:54:43;;;;;;;6.40;3.40;;;;;;;19.55;20.64;100357.78;5015045;28;20112;-64